Chaska, Minnesota
Current Conditions -  °F | °C
As of 10:53 AM on Thursday 23 Oct 2014 (Local Time) from KFCM Reporting Station
Overcast Overcast  
Wind Chill: 57°   Ceiling: 1000
Heat Index: 57°   Visibility: 10mi
Dew Point: 52°   Wind: 10mph
Humidity: 83%   Direction: 240°WSW
Pressure: 30"   Gusts: NA
Location:  44.79°N, 93.6°W
Report Text: KFCM 231553Z 24009KT 10SM OVC010 14/11 A3000 RMK AO2 SLP160 T01390111
Loading
Personal Weather Stations






























Interactive Weather Map
Tropical Storm Tracking
New forecast layout! Learn more

10-Day Weather Forecast

Advertisements
Track Severe Weather on mobile